Time;durP1;ratioP1;P1;durP2;ratioP2;P2;SDS_P1;SDS_P2;PMS_P1;PMS_P2;Temp;Humidity;BMP_temperature;BMP_pressure;BME280_temperature;BME280_humidity;BME280_pressure;Samples;Min_cycle;Max_cycle;Signal;HPM_P1;HPM_P2
2022/03/21 00:00:48;;;;;;;53.03;33.75;;;6.10;99.90;;;;;;5096138;28;20048;-70
2022/03/21 00:03:17;;;;;;;50.53;32.63;;;6.20;99.90;;;;;;5087489;28;20080;-71
2022/03/21 00:05:46;;;;;;;53.03;32.85;;;6.10;99.90;;;;;;5095673;28;20067;-71
2022/03/21 00:08:13;;;;;;;48.60;32.22;;;6.20;99.90;;;;;;5096164;28;20058;-70
2022/03/21 00:10:41;;;;;;;50.80;33.95;;;6.20;99.90;;;;;;5095791;28;20411;-70
2022/03/21 00:13:09;;;;;;;51.20;32.53;;;6.20;99.90;;;;;;5096416;28;20056;-69
2022/03/21 00:15:37;;;;;;;49.00;31.95;;;6.20;99.90;;;;;;5078025;28;20101;-69
2022/03/21 00:18:06;;;;;;;47.67;31.17;;;6.20;99.90;;;;;;5077275;28;20070;-70
2022/03/21 00:20:34;;;;;;;46.55;31.85;;;6.20;99.90;;;;;;5077971;28;20052;-70
2022/03/21 00:23:01;;;;;;;45.20;30.92;;;6.20;99.90;;;;;;5078003;28;20052;-69
2022/03/21 00:25:29;;;;;;;45.78;30.55;;;6.20;99.90;;;;;;5076942;28;20066;-69
2022/03/21 00:27:56;;;;;;;47.83;30.38;;;6.20;99.90;;;;;;5095667;28;20063;-70
2022/03/21 00:30:23;;;;;;;47.85;30.10;;;6.20;99.90;;;;;;5077344;28;20055;-69
2022/03/21 00:32:50;;;;;;;49.55;29.75;;;6.20;99.90;;;;;;5077060;28;20040;-69
2022/03/21 00:35:18;;;;;;;45.28;29.83;;;6.10;99.90;;;;;;5095650;28;20502;-69
2022/03/21 00:37:46;;;;;;;45.55;30.48;;;6.20;99.90;;;;;;5077267;28;20048;-70
2022/03/21 00:40:15;;;;;;;48.28;32.33;;;6.10;99.90;;;;;;5095061;28;20088;-69
2022/03/21 00:42:43;;;;;;;42.97;29.63;;;6.00;99.90;;;;;;5095496;28;20479;-69
2022/03/21 00:45:13;;;;;;;49.00;30.92;;;6.00;99.90;;;;;;5095340;28;20121;-69
2022/03/21 00:47:40;;;;;;;50.95;30.10;;;6.00;99.90;;;;;;5077081;28;20461;-69
2022/03/21 00:50:09;;;;;;;45.58;29.67;;;6.00;99.90;;;;;;5077640;28;20151;-69
2022/03/21 00:52:41;;;;;;;47.13;29.50;;;5.90;99.90;;;;;;5095276;28;20048;-69
2022/03/21 00:55:10;;;;;;;43.60;28.20;;;5.90;99.90;;;;;;5077508;28;20113;-69
2022/03/21 00:57:37;;;;;;;46.20;28.83;;;5.90;99.90;;;;;;5095023;28;20511;-69
2022/03/21 01:00:06;;;;;;;46.85;28.30;;;5.90;99.90;;;;;;5076789;28;20109;-69
2022/03/21 01:02:33;;;;;;;47.80;28.63;;;5.80;99.90;;;;;;5095166;28;20446;-70
2022/03/21 01:05:00;;;;;;;44.95;27.48;;;6.00;99.90;;;;;;5094375;28;20060;-69
2022/03/21 01:07:27;;;;;;;42.85;27.73;;;5.80;99.90;;;;;;5076643;28;20446;-69
2022/03/21 01:09:55;;;;;;;43.65;26.88;;;5.80;99.90;;;;;;5095698;28;20056;-70
2022/03/21 01:12:22;;;;;;;43.30;26.95;;;5.70;99.90;;;;;;5094663;28;20491;-70
2022/03/21 01:14:49;;;;;;;41.08;27.48;;;5.90;99.90;;;;;;5094502;28;20098;-70
2022/03/21 01:17:16;;;;;;;38.72;26.35;;;5.70;99.90;;;;;;5094863;28;20050;-70
2022/03/21 01:19:42;;;;;;;38.13;25.05;;;5.70;99.90;;;;;;5076983;28;20044;-70
2022/03/21 01:22:09;;;;;;;39.20;24.85;;;5.70;99.90;;;;;;5075859;28;20056;-70
2022/03/21 01:24:38;;;;;;;43.33;24.25;;;5.70;99.90;;;;;;5076435;28;20055;-70
2022/03/21 01:27:07;;;;;;;40.53;25.40;;;5.70;99.90;;;;;;5073271;28;20106;-70
2022/03/21 01:29:34;;;;;;;36.13;23.35;;;5.60;99.90;;;;;;5072658;28;20048;-70
2022/03/21 01:32:02;;;;;;;41.00;23.02;;;5.70;99.90;;;;;;5074626;28;20075;-71
2022/03/21 01:34:29;;;;;;;36.58;23.33;;;5.70;99.90;;;;;;5072791;28;20151;-71
2022/03/21 01:36:56;;;;;;;35.28;23.20;;;5.70;99.90;;;;;;5072669;28;20082;-71
2022/03/21 01:39:23;;;;;;;39.88;23.73;;;5.60;99.90;;;;;;5072736;28;20056;-70
2022/03/21 01:41:51;;;;;;;33.40;21.92;;;5.50;99.90;;;;;;5074108;28;20472;-70
2022/03/21 01:44:20;;;;;;;37.58;22.98;;;5.50;99.90;;;;;;5072336;28;20048;-69
2022/03/21 01:46:47;;;;;;;34.47;21.67;;;5.50;99.90;;;;;;5074353;28;20056;-71
2022/03/21 01:49:14;;;;;;;33.58;21.73;;;5.40;99.90;;;;;;5071964;28;20057;-71
2022/03/21 01:51:43;;;;;;;34.58;22.08;;;5.40;99.90;;;;;;5074229;28;20053;-70
2022/03/21 01:56:55;;;;;;;33.15;20.38;;;5.30;99.90;;;;;;5051896;28;20083;-69
2022/03/21 01:59:24;;;;;;;33.13;21.00;;;5.20;99.90;;;;;;5052806;28;20103;-70
2022/03/21 02:01:51;;;;;;;33.78;20.60;;;5.20;99.90;;;;;;5061133;28;20074;-69
2022/03/21 02:04:18;;;;;;;32.47;20.20;;;5.10;99.90;;;;;;5072123;28;20147;-69
2022/03/21 02:06:46;;;;;;;33.30;20.85;;;5.10;99.90;;;;;;5072597;28;20048;-69
2022/03/21 02:09:14;;;;;;;32.80;20.33;;;5.10;99.90;;;;;;5073751;28;20462;-69
2022/03/21 02:11:41;;;;;;;32.63;20.30;;;5.00;99.90;;;;;;5073159;28;20052;-69
2022/03/21 02:14:09;;;;;;;31.88;20.00;;;5.00;99.90;;;;;;5073210;28;20050;-69
2022/03/21 02:16:39;;;;;;;37.08;19.73;;;4.90;99.90;;;;;;5068146;28;20111;-69
2022/03/21 02:19:14;;;;;;;26.50;17.65;;;4.90;99.90;;;;;;5052916;28;20049;-69
2022/03/21 02:22:04;;;;;;;31.27;18.35;;;4.90;99.90;;;;;;5066904;28;20056;-69
2022/03/21 02:24:37;;;;;;;29.77;18.17;;;4.90;99.90;;;;;;5071892;28;20044;-69
2022/03/21 02:27:08;;;;;;;27.00;17.10;;;4.80;99.90;;;;;;5093238;28;20113;-69
2022/03/21 02:29:37;;;;;;;25.13;17.05;;;4.80;99.90;;;;;;5075834;28;20055;-69
2022/03/21 02:32:06;;;;;;;29.30;17.30;;;4.70;99.90;;;;;;5075181;28;20097;-69
2022/03/21 02:34:37;;;;;;;32.65;18.70;;;4.70;99.90;;;;;;5075809;28;20093;-69
2022/03/21 02:37:05;;;;;;;26.38;16.58;;;4.70;99.90;;;;;;5093819;28;20399;-69
2022/03/21 02:39:33;;;;;;;27.30;16.55;;;4.70;99.90;;;;;;5075335;28;20101;-69
2022/03/21 02:42:00;;;;;;;30.25;17.15;;;4.60;99.90;;;;;;5076163;28;20060;-69
2022/03/21 02:44:34;;;;;;;28.92;17.17;;;4.70;99.90;;;;;;5093669;28;20051;-69
2022/03/21 02:47:01;;;;;;;28.45;17.58;;;4.60;99.90;;;;;;5074896;28;20487;-69
2022/03/21 02:49:28;;;;;;;30.13;17.90;;;4.60;99.90;;;;;;5093369;28;20051;-69
2022/03/21 02:51:56;;;;;;;31.13;18.08;;;4.50;99.90;;;;;;5075581;28;20175;-69
2022/03/21 02:54:23;;;;;;;34.97;17.83;;;4.50;99.90;;;;;;5074707;28;20180;-69
2022/03/21 02:56:50;;;;;;;27.17;17.17;;;4.40;99.90;;;;;;5093660;28;20083;-69
2022/03/21 02:59:18;;;;;;;27.20;16.40;;;4.40;99.90;;;;;;5092929;28;20051;-68
2022/03/21 03:01:46;;;;;;;26.50;16.52;;;4.30;99.90;;;;;;5093593;28;20349;-70
2022/03/21 03:04:13;;;;;;;30.42;18.65;;;4.30;99.90;;;;;;5092971;28;20492;-70
2022/03/21 03:06:40;;;;;;;24.38;15.40;;;4.20;99.90;;;;;;5093103;28;20056;-69
2022/03/21 03:09:07;;;;;;;25.85;16.48;;;4.20;99.90;;;;;;5093373;28;20048;-70
2022/03/21 03:11:37;;;;;;;25.20;16.80;;;4.20;99.90;;;;;;5093575;28;20094;-70
2022/03/21 03:14:04;;;;;;;25.85;16.92;;;4.10;99.90;;;;;;5074441;28;20491;-70
2022/03/21 03:16:31;;;;;;;28.08;16.25;;;4.10;99.90;;;;;;5093192;28;20549;-70
2022/03/21 03:18:59;;;;;;;25.98;17.13;;;4.10;99.90;;;;;;5093030;28;20052;-69
2022/03/21 03:21:28;;;;;;;24.85;15.55;;;4.00;99.90;;;;;;5092817;28;20048;-70
2022/03/21 03:23:55;;;;;;;26.67;15.25;;;4.00;99.90;;;;;;5075505;28;20121;-70
2022/03/21 03:26:22;;;;;;;24.30;14.77;;;4.00;99.90;;;;;;5093021;28;20052;-70
2022/03/21 03:28:49;;;;;;;26.02;15.70;;;4.00;99.90;;;;;;5074245;28;20089;-69
2022/03/21 03:31:18;;;;;;;24.00;14.93;;;4.00;99.90;;;;;;5071564;28;20052;-69
2022/03/21 03:33:45;;;;;;;26.63;15.70;;;4.00;99.90;;;;;;5072806;28;20048;-69
2022/03/21 03:36:15;;;;;;;26.35;14.25;;;4.00;99.90;;;;;;5072466;28;20381;-70
2022/03/21 03:38:42;;;;;;;23.23;14.95;;;4.00;99.90;;;;;;5074572;28;20048;-69
2022/03/21 03:41:09;;;;;;;28.05;15.18;;;4.00;99.90;;;;;;5092992;28;20097;-69
2022/03/21 03:43:36;;;;;;;23.55;15.32;;;4.00;99.90;;;;;;5074430;28;20080;-69
2022/03/21 03:46:03;;;;;;;29.02;14.63;;;4.00;99.90;;;;;;5071379;28;20106;-69
2022/03/21 03:48:31;;;;;;;24.85;15.30;;;3.90;99.90;;;;;;5072090;28;20135;-69
2022/03/21 03:50:58;;;;;;;28.00;14.52;;;3.90;99.90;;;;;;5055139;28;20048;-69
2022/03/21 03:53:26;;;;;;;26.65;15.30;;;3.90;99.90;;;;;;5061072;28;20076;-69
2022/03/21 03:55:53;;;;;;;27.40;15.88;;;3.90;99.90;;;;;;5092341;28;20129;-69
2022/03/21 03:58:20;;;;;;;25.30;14.82;;;3.90;99.90;;;;;;5075190;28;20068;-69
2022/03/21 04:00:46;;;;;;;26.67;15.70;;;3.80;99.90;;;;;;5092839;28;20136;-69
2022/03/21 04:05:58;;;;;;;27.13;14.50;;;3.80;99.90;;;;;;5092757;28;20055;-69
2022/03/21 04:08:26;;;;;;;30.63;17.08;;;3.80;99.90;;;;;;5071079;28;20114;-69
2022/03/21 04:10:53;;;;;;;24.85;15.18;;;3.80;99.90;;;;;;5054142;28;20052;-69
2022/03/21 04:13:20;;;;;;;30.33;15.18;;;3.80;99.90;;;;;;5087313;28;20056;-69
2022/03/21 04:15:47;;;;;;;26.45;16.50;;;3.70;99.90;;;;;;5074796;28;20088;-69
2022/03/21 04:18:14;;;;;;;31.27;16.25;;;3.70;99.90;;;;;;5073992;28;20098;-68
2022/03/21 04:20:41;;;;;;;30.33;16.13;;;3.70;99.90;;;;;;5092662;28;20040;-69
2022/03/21 04:23:09;;;;;;;25.73;15.27;;;3.70;99.90;;;;;;5092750;28;20048;-69
2022/03/21 04:25:37;;;;;;;26.00;15.13;;;3.70;99.90;;;;;;5073884;28;20048;-70
2022/03/21 04:28:09;;;;;;;30.30;16.58;;;3.60;99.90;;;;;;5074612;28;20044;-70
2022/03/21 04:30:37;;;;;;;28.58;15.40;;;3.60;99.90;;;;;;5074750;28;20393;-70
2022/03/21 04:33:04;;;;;;;26.60;17.13;;;3.60;99.90;;;;;;5074333;28;20050;-70
2022/03/21 04:35:31;;;;;;;25.77;15.75;;;3.60;99.90;;;;;;5092302;28;20056;-69
2022/03/21 04:37:58;;;;;;;25.25;15.50;;;3.60;99.90;;;;;;5091947;28;20449;-70
2022/03/21 04:40:25;;;;;;;25.40;16.80;;;3.60;99.90;;;;;;5095212;28;20161;-69
2022/03/21 04:42:53;;;;;;;29.60;16.55;;;3.70;99.90;;;;;;5096644;28;20044;-69
2022/03/21 04:45:20;;;;;;;24.60;15.02;;;3.60;99.90;;;;;;5095929;28;20522;-69
2022/03/21 04:47:47;;;;;;;30.95;16.88;;;3.60;99.90;;;;;;5073625;28;20137;-69
2022/03/21 04:50:14;;;;;;;28.95;16.23;;;3.60;99.90;;;;;;5078021;28;20106;-69
2022/03/21 04:52:41;;;;;;;28.55;15.77;;;3.60;99.90;;;;;;5063823;28;20537;-69
2022/03/21 04:55:09;;;;;;;25.95;15.80;;;3.50;99.90;;;;;;5085796;28;20090;-69
2022/03/21 04:57:36;;;;;;;25.75;15.77;;;3.60;99.90;;;;;;5066220;28;20098;-69
2022/03/21 05:00:06;;;;;;;24.48;15.52;;;3.50;99.90;;;;;;5067067;28;20094;-70
2022/03/21 05:02:33;;;;;;;25.87;15.10;;;3.50;99.90;;;;;;5070277;28;20104;-69
2022/03/21 05:05:02;;;;;;;26.98;15.45;;;3.50;99.90;;;;;;5092115;28;20301;-69
2022/03/21 05:07:29;;;;;;;30.08;16.40;;;3.50;99.90;;;;;;5093326;28;20056;-69
2022/03/21 05:09:56;;;;;;;27.30;16.02;;;3.50;99.90;;;;;;5090477;28;20044;-69
2022/03/21 05:12:23;;;;;;;26.23;15.60;;;3.40;99.90;;;;;;5060859;28;20106;-69
2022/03/21 05:14:50;;;;;;;29.40;16.17;;;3.40;99.90;;;;;;5085745;28;20040;-69
2022/03/21 05:17:18;;;;;;;27.80;16.08;;;3.40;99.90;;;;;;5074868;28;20056;-69
2022/03/21 05:19:45;;;;;;;26.75;16.67;;;3.40;99.90;;;;;;5086607;28;20048;-69
2022/03/21 05:22:12;;;;;;;28.08;16.17;;;3.40;99.90;;;;;;5087155;28;20515;-69
2022/03/21 05:35:52;;;;;;;27.75;16.40;;;3.20;99.90;;;;;;5070145;28;20091;-69
2022/03/21 05:35:55;;;;;;;26.70;15.40;;;3.20;99.90;;;;;;5068439;28;20040;-70
2022/03/21 05:38:23;;;;;;;31.83;15.90;;;3.10;99.90;;;;;;5066418;28;20040;-70
2022/03/21 05:40:51;;;;;;;24.00;16.10;;;3.10;99.90;;;;;;5074009;28;20135;-69
2022/03/21 05:43:17;;;;;;;28.45;16.40;;;3.00;99.90;;;;;;5054955;28;20493;-69
2022/03/21 05:45:44;;;;;;;24.75;16.25;;;3.00;99.90;;;;;;5055809;28;20056;-69
2022/03/21 05:50:57;;;;;;;26.95;16.05;;;3.00;99.90;;;;;;5082334;28;20576;-69
2022/03/21 05:53:24;;;;;;;26.27;15.82;;;2.90;99.90;;;;;;5055390;28;20048;-69
2022/03/21 05:55:51;;;;;;;30.13;17.05;;;2.90;99.90;;;;;;5072802;28;20056;-69
2022/03/21 05:58:17;;;;;;;31.63;16.17;;;2.90;99.90;;;;;;5073651;28;20052;-71
2022/03/21 06:00:44;;;;;;;24.02;15.18;;;2.90;99.90;;;;;;5073865;28;20110;-69
2022/03/21 06:03:12;;;;;;;27.83;15.30;;;2.90;99.90;;;;;;5068001;28;20110;-69
2022/03/21 06:05:40;;;;;;;28.30;17.40;;;2.90;99.90;;;;;;5087127;28;20443;-70
2022/03/21 06:08:08;;;;;;;25.40;14.85;;;2.90;99.90;;;;;;5065201;28;20048;-70
2022/03/21 06:10:36;;;;;;;27.52;15.77;;;3.10;99.90;;;;;;5087573;28;20055;-69
2022/03/21 06:13:05;;;;;;;24.42;15.52;;;3.10;99.90;;;;;;5084802;28;20048;-69
2022/03/21 06:15:32;;;;;;;29.50;17.17;;;3.20;99.90;;;;;;5085368;28;20040;-70
2022/03/21 06:17:59;;;;;;;31.05;16.20;;;3.20;99.90;;;;;;5088803;28;20052;-69
2022/03/21 06:20:28;;;;;;;29.42;16.40;;;3.20;99.90;;;;;;5088644;28;20492;-68
2022/03/21 06:22:57;;;;;;;25.20;15.38;;;3.30;99.90;;;;;;5087898;28;20113;-69
2022/03/21 06:25:24;;;;;;;28.20;16.80;;;3.30;99.90;;;;;;5083620;28;20087;-68
2022/03/21 06:27:51;;;;;;;33.10;17.00;;;3.40;99.90;;;;;;5067907;28;20098;-69
2022/03/21 06:30:17;;;;;;;28.83;15.75;;;3.40;99.90;;;;;;5067758;28;20438;-68
2022/03/21 06:32:44;;;;;;;28.10;15.73;;;3.50;99.90;;;;;;5087194;28;20404;-69
2022/03/21 06:35:11;;;;;;;31.58;16.88;;;3.60;99.90;;;;;;5070412;28;20048;-69
2022/03/21 06:37:40;;;;;;;27.52;16.55;;;3.70;99.90;;;;;;5066766;28;20087;-70
2022/03/21 06:40:09;;;;;;;32.70;17.00;;;3.80;99.90;;;;;;5067595;28;20102;-69
2022/03/21 06:42:36;;;;;;;27.80;17.40;;;3.90;99.90;;;;;;5070658;28;20040;-70
2022/03/21 06:45:04;;;;;;;30.05;16.48;;;4.00;99.90;;;;;;5065356;28;20048;-70
2022/03/21 06:47:31;;;;;;;26.88;15.43;;;4.20;99.90;;;;;;5071985;28;20385;-70
2022/03/21 06:49:58;;;;;;;26.88;16.88;;;4.40;99.90;;;;;;5067787;28;20056;-70
2022/03/21 06:52:25;;;;;;;26.67;15.27;;;4.60;99.90;;;;;;5084938;28;20051;-70
2022/03/21 06:54:53;;;;;;;27.65;16.30;;;4.80;99.90;;;;;;5072118;28;20510;-70
2022/03/21 06:57:21;;;;;;;24.05;16.55;;;5.40;99.90;;;;;;5085707;28;20048;-70
2022/03/21 06:59:48;;;;;;;27.83;15.25;;;5.90;99.90;;;;;;5088932;28;20058;-71
2022/03/21 07:02:16;;;;;;;26.42;16.00;;;6.50;99.90;;;;;;5085171;28;20144;-70
2022/03/21 07:04:44;;;;;;;25.52;14.70;;;6.90;99.90;;;;;;5086349;28;20039;-70
2022/03/21 07:07:11;;;;;;;22.83;16.38;;;7.40;99.90;;;;;;5091126;28;20330;-70
2022/03/21 07:09:37;;;;;;;27.25;17.05;;;7.70;99.90;;;;;;5090786;28;20109;-71
2022/03/21 07:12:06;;;;;;;23.23;16.90;;;7.90;99.90;;;;;;5075167;28;20479;-70
2022/03/21 07:14:34;;;;;;;23.27;16.67;;;8.40;99.90;;;;;;5071042;28;20404;-70
2022/03/21 07:17:01;;;;;;;26.88;17.40;;;9.20;99.90;;;;;;5072976;28;20488;-70
2022/03/21 07:19:28;;;;;;;24.52;15.57;;;10.20;99.90;;;;;;5064901;28;20105;-71
2022/03/21 07:21:55;;;;;;;23.95;16.27;;;11.30;99.90;;;;;;5092217;28;20040;-71
2022/03/21 07:24:21;;;;;;;25.65;16.13;;;11.90;99.90;;;;;;5090336;28;20113;-71
2022/03/21 07:26:48;;;;;;;29.92;14.90;;;12.80;99.90;;;;;;5072145;28;20048;-71
2022/03/21 07:29:16;;;;;;;27.35;16.20;;;13.40;99.90;;;;;;5076174;28;20059;-72
2022/03/21 07:31:43;;;;;;;20.77;14.68;;;14.10;99.90;;;;;;5113912;28;20051;-71
2022/03/21 07:34:10;;;;;;;26.08;15.52;;;14.60;99.90;;;;;;5094547;28;20063;-72
2022/03/21 07:36:37;;;;;;;21.33;15.23;;;14.90;99.90;;;;;;5093501;28;20055;-71
2022/03/21 07:39:05;;;;;;;24.33;14.60;;;15.40;99.90;;;;;;5092921;28;20055;-72
2022/03/21 07:41:32;;;;;;;21.60;14.18;;;15.60;99.90;;;;;;5074035;28;20491;-71
2022/03/21 07:43:59;;;;;;;21.45;15.55;;;15.80;99.90;;;;;;5093501;28;20461;-72
2022/03/21 07:49:12;;;;;;;20.40;13.60;;;16.70;99.90;;;;;;5092624;28;20120;-71
2022/03/21 07:51:43;;;;;;;20.35;12.48;;;16.80;97.80;;;;;;5074768;28;20453;-71
2022/03/21 07:54:11;;;;;;;19.05;13.85;;;17.00;96.20;;;;;;5079410;28;20108;-71
2022/03/21 07:56:38;;;;;;;17.17;13.35;;;17.70;96.40;;;;;;5112894;28;20128;-72
2022/03/21 07:59:05;;;;;;;17.80;13.80;;;17.70;93.50;;;;;;5095407;28;20116;-72
2022/03/21 08:01:34;;;;;;;20.60;13.75;;;18.00;93.10;;;;;;5112911;28;20059;-72
2022/03/21 08:04:04;;;;;;;19.27;13.73;;;18.00;91.60;;;;;;5112645;28;20507;-72
2022/03/21 08:06:31;;;;;;;19.48;13.93;;;18.50;91.40;;;;;;5113460;28;20039;-72
2022/03/21 08:08:58;;;;;;;19.95;13.30;;;18.70;90.40;;;;;;5094615;28;20071;-72
2022/03/21 08:11:25;;;;;;;18.75;13.82;;;19.00;88.30;;;;;;5092906;28;20083;-72
2022/03/21 08:13:52;;;;;;;16.83;12.93;;;19.10;86.70;;;;;;5074990;28;20094;-73
2022/03/21 08:16:20;;;;;;;20.35;14.02;;;19.40;85.20;;;;;;5095716;28;20104;-73
2022/03/21 08:18:51;;;;;;;15.95;12.18;;;19.90;82.10;;;;;;5096309;28;20094;-73
2022/03/21 08:21:18;;;;;;;;;;;20.40;80.40;;;;;;5096574;28;20139;-72
2022/03/21 08:23:46;;;;;;;16.52;12.20;;;20.20;73.90;;;;;;5095443;28;19920;-72
2022/03/21 08:26:13;;;;;;;16.83;12.50;;;20.40;78.40;;;;;;5077943;28;20134;-73
2022/03/21 08:28:39;;;;;;;19.85;13.10;;;20.60;76.40;;;;;;5085880;28;20051;-73
2022/03/21 08:31:06;;;;;;;19.33;12.90;;;20.80;75.10;;;;;;5115884;28;20469;-73
2022/03/21 08:33:33;;;;;;;16.63;12.27;;;20.80;73.50;;;;;;5098620;28;20494;-73
2022/03/21 08:36:01;;;;;;;16.67;12.13;;;21.20;73.20;;;;;;5115306;28;20044;-71
2022/03/21 08:38:29;;;;;;;15.50;12.23;;;21.30;70.70;;;;;;5095292;28;20484;-71
2022/03/21 08:40:57;;;;;;;18.25;12.80;;;21.50;71.30;;;;;;5096031;28;20048;-70
2022/03/21 08:43:24;;;;;;;19.75;13.63;;;21.30;70.10;;;;;;5078141;28;20086;-72
2022/03/21 08:45:52;;;;;;;19.88;13.52;;;21.40;70.20;;;;;;5077586;28;20557;-72
2022/03/21 08:48:19;;;;;;;16.40;12.90;;;21.50;69.10;;;;;;5078045;28;20377;-72
2022/03/21 08:50:46;;;;;;;19.27;14.27;;;21.70;68.20;;;;;;5095904;28;20055;-70
2022/03/21 08:53:14;;;;;;;15.50;12.35;;;21.60;67.30;;;;;;5095462;28;20044;-70
2022/03/21 08:55:41;;;;;;;22.95;13.88;;;22.10;66.80;;;;;;5095718;28;20040;-71
2022/03/21 08:58:08;;;;;;;19.65;13.82;;;22.20;65.90;;;;;;5077060;28;20123;-70
2022/03/21 09:00:35;;;;;;;16.90;13.10;;;22.60;64.90;;;;;;5077811;28;20067;-70
2022/03/21 09:03:02;;;;;;;16.38;13.50;;;22.60;63.90;;;;;;5077520;28;20123;-71
2022/03/21 09:05:29;;;;;;;19.00;14.50;;;22.60;63.70;;;;;;5094841;28;20495;-71
2022/03/21 09:07:56;;;;;;;21.55;14.38;;;23.20;63.10;;;;;;5095566;28;20048;-71
2022/03/21 09:10:24;;;;;;;18.67;13.98;;;23.10;61.50;;;;;;5077564;28;20052;-71
2022/03/21 09:12:51;;;;;;;17.25;12.80;;;23.40;60.80;;;;;;5073038;28;20053;-70
2022/03/21 09:15:18;;;;;;;17.13;13.70;;;23.50;60.10;;;;;;5095619;28;20082;-71
2022/03/21 09:17:45;;;;;;;16.70;13.77;;;23.90;59.70;;;;;;5077350;28;20136;-71
2022/03/21 09:20:14;;;;;;;15.82;13.43;;;23.80;59.00;;;;;;5073262;28;20052;-71
2022/03/21 09:22:41;;;;;;;18.80;13.80;;;23.90;58.10;;;;;;5075080;28;20051;-72
2022/03/21 09:25:09;;;;;;;18.38;13.20;;;24.00;58.30;;;;;;5074292;28;20060;-71
2022/03/21 09:27:42;;;;;;;17.30;13.82;;;24.10;57.40;;;;;;5083081;28;20052;-73
2022/03/21 09:30:11;;;;;;;15.60;12.55;;;24.80;56.80;;;;;;5102294;28;20090;-73
2022/03/21 09:32:38;;;;;;;19.67;14.27;;;24.60;56.30;;;;;;5073650;28;20056;-73
2022/03/21 09:35:06;;;;;;;16.48;12.65;;;25.30;55.80;;;;;;5069866;28;20047;-73
2022/03/21 09:37:33;;;;;;;18.63;13.30;;;25.40;54.90;;;;;;5095050;28;20152;-73
2022/03/21 09:40:01;;;;;;;16.30;13.43;;;25.40;54.00;;;;;;5095118;28;20044;-72
2022/03/21 09:42:28;;;;;;;18.08;13.77;;;25.50;53.20;;;;;;5072659;28;20048;-73
2022/03/21 09:44:56;;;;;;;19.35;13.80;;;25.50;53.00;;;;;;5068419;28;20051;-72
2022/03/21 09:50:10;;;;;;;16.38;13.80;;;25.40;52.30;;;;;;5095002;28;20553;-72
2022/03/21 09:52:37;;;;;;;15.98;13.65;;;25.20;51.10;;;;;;5077195;28;20056;-73
2022/03/21 09:55:05;;;;;;;17.08;13.05;;;25.50;50.90;;;;;;5094015;28;20056;-72
2022/03/21 09:57:32;;;;;;;18.45;13.88;;;25.10;50.30;;;;;;5076633;28;20044;-74
2022/03/21 10:00:00;;;;;;;17.88;14.15;;;25.30;50.40;;;;;;5077137;28;20052;-73
2022/03/21 10:02:27;;;;;;;16.33;13.25;;;25.60;49.40;;;;;;5093388;28;20051;-73
2022/03/21 10:04:54;;;;;;;15.60;12.60;;;25.80;49.10;;;;;;5093954;28;20051;-73
2022/03/21 10:07:24;;;;;;;16.13;12.50;;;26.00;48.00;;;;;;5075946;28;20048;-73
2022/03/21 10:10:06;;;;;;;15.40;13.15;;;25.90;46.10;;;;;;5076541;28;20047;-73
2022/03/21 10:12:33;;;;;;;15.15;12.75;;;26.10;45.50;;;;;;5095237;28;20056;-73
2022/03/21 10:15:05;;;;;;;15.00;12.55;;;26.00;46.90;;;;;;5094439;28;20522;-73
2022/03/21 10:17:32;;;;;;;14.75;12.68;;;25.80;44.90;;;;;;5059755;28;20072;-74
2022/03/21 10:19:59;;;;;;;16.08;12.80;;;25.70;45.30;;;;;;5072366;28;20055;-74
2022/03/21 10:22:37;;;;;;;15.68;12.57;;;25.60;45.70;;;;;;5080921;28;20063;-72
2022/03/21 10:25:06;;;;;;;14.77;12.00;;;25.70;44.90;;;;;;5089271;28;20048;-73
2022/03/21 10:27:36;;;;;;;14.23;12.27;;;25.50;45.30;;;;;;5068431;28;20126;-74
2022/03/21 10:30:07;;;;;;;17.73;12.98;;;26.00;45.80;;;;;;5084566;28;20120;-74
2022/03/21 10:32:37;;;;;;;19.23;12.23;;;25.80;44.80;;;;;;5069230;28;20508;-73
2022/03/21 10:35:10;;;;;;;17.60;13.30;;;26.10;45.20;;;;;;5072144;28;20141;-73
2022/03/21 10:37:43;;;;;;;16.55;12.82;;;25.80;44.50;;;;;;5084732;28;20102;-74
2022/03/21 10:40:18;;;;;;;14.48;12.25;;;25.20;43.80;;;;;;5066616;28;20114;-73
2022/03/21 10:42:55;;;;;;;14.00;12.30;;;25.60;44.20;;;;;;5066773;28;20093;-72
2022/03/21 10:45:24;;;;;;;16.67;12.73;;;25.80;43.80;;;;;;5072374;28;20053;-73
2022/03/21 10:47:51;;;;;;;16.17;12.85;;;25.70;44.40;;;;;;5065994;28;20056;-73
2022/03/21 10:50:31;;;;;;;17.33;12.75;;;26.20;44.50;;;;;;5084579;28;20052;-73
2022/03/21 10:53:08;;;;;;;;;;;26.20;43.50;;;;;;5067479;28;20044;-73
2022/03/21 10:55:35;;;;;;;14.77;12.45;;;25.20;42.20;;;;;;5067709;28;19924;-73
2022/03/21 10:58:02;;;;;;;18.88;12.55;;;24.90;44.80;;;;;;5085328;28;20522;-73
2022/03/21 11:00:30;;;;;;;17.42;12.90;;;25.90;44.60;;;;;;5087990;28;20114;-72
2022/03/21 11:03:00;;;;;;;14.35;12.15;;;26.50;44.30;;;;;;5087177;28;20047;-73
2022/03/21 11:05:30;;;;;;;15.73;12.40;;;26.50;43.10;;;;;;5060948;28;20067;-73
2022/03/21 11:07:57;;;;;;;15.00;12.63;;;26.30;43.80;;;;;;5067480;28;20048;-73
2022/03/21 11:10:27;;;;;;;18.25;13.23;;;26.30;44.20;;;;;;5066972;28;20480;-73
2022/03/21 11:12:56;;;;;;;17.48;13.30;;;26.00;44.40;;;;;;5084940;28;20057;-74
2022/03/21 11:15:23;;;;;;;15.35;12.45;;;26.20;44.00;;;;;;5070221;28;20055;-74
2022/03/21 11:17:52;;;;;;;15.25;13.20;;;26.70;44.20;;;;;;5067137;28;20048;-73
2022/03/21 11:20:18;;;;;;;17.35;13.50;;;26.90;43.80;;;;;;5085572;28;20124;-73
2022/03/21 11:22:45;;;;;;;15.63;12.45;;;26.90;43.70;;;;;;5068551;28;20048;-72
2022/03/21 11:25:14;;;;;;;15.90;11.95;;;27.20;43.70;;;;;;5084945;28;20425;-73
2022/03/21 11:28:23;;;;;;;15.27;12.23;;;27.20;43.20;;;;;;5066940;28;20045;-73
2022/03/21 11:31:18;;;;;;;16.15;12.82;;;27.00;41.40;;;;;;5068533;28;20049;-73
2022/03/21 11:33:50;;;;;;;18.05;12.27;;;27.30;42.80;;;;;;5085429;28;20101;-73
2022/03/21 11:36:17;;;;;;;15.45;11.80;;;27.40;43.10;;;;;;5055981;28;20048;-73
2022/03/21 11:38:46;;;;;;;15.35;13.05;;;27.50;42.80;;;;;;5084432;28;20105;-73
2022/03/21 11:41:21;;;;;;;17.20;12.43;;;27.10;42.70;;;;;;5074264;28;20048;-73
2022/03/21 11:44:08;;;;;;;12.77;10.73;;;27.30;43.10;;;;;;5075408;28;20056;-74
2022/03/21 11:46:36;;;;;;;13.98;11.57;;;27.50;42.60;;;;;;5093033;28;20116;-73
2022/03/21 11:49:27;;;;;;;14.35;11.02;;;27.50;43.00;;;;;;5076351;28;20082;-73
2022/03/21 11:51:55;;;;;;;14.35;11.75;;;27.50;42.40;;;;;;5076702;28;20053;-73
2022/03/21 11:54:27;;;;;;;17.15;13.00;;;27.80;42.50;;;;;;5076170;28;20052;-73
2022/03/21 11:57:02;;;;;;;15.55;12.25;;;27.80;42.10;;;;;;5058721;28;20040;-73
2022/03/21 11:59:52;;;;;;;14.73;11.73;;;27.60;42.00;;;;;;5059133;28;20079;-73
2022/03/21 12:02:42;;;;;;;;;;;27.80;42.40;;;;;;5076364;28;20484;-73
2022/03/21 12:05:10;;;;;;;13.68;11.65;;;26.80;42.30;;;;;;5083676;28;19977;-74
2022/03/21 12:07:41;;;;;;;16.42;11.85;;;26.60;42.70;;;;;;5096840;28;20469;-73
2022/03/21 12:10:08;;;;;;;17.45;12.48;;;27.40;42.70;;;;;;5096033;28;20117;-74
2022/03/21 12:12:53;;;;;;;13.43;11.00;;;27.40;42.60;;;;;;5078790;28;20060;-74
2022/03/21 12:15:30;;;;;;;15.98;11.65;;;27.40;42.00;;;;;;5096169;28;20484;-73
2022/03/21 12:17:57;;;;;;;17.00;11.57;;;27.50;43.00;;;;;;5096559;28;20040;-73
2022/03/21 12:20:25;;;;;;;17.75;12.48;;;27.50;42.30;;;;;;5096237;28;20101;-73
2022/03/21 12:23:00;;;;;;;15.82;12.23;;;27.50;42.60;;;;;;5077957;28;20051;-73
2022/03/21 12:25:43;;;;;;;16.35;12.18;;;27.30;42.30;;;;;;5078225;28;20523;-73
2022/03/21 12:31:26;;;;;;;13.05;11.48;;;26.60;42.80;;;;;;5094565;28;20048;-74
2022/03/21 12:33:53;;;;;;;16.92;12.07;;;27.20;42.30;;;;;;5078269;28;20055;-74
2022/03/21 12:36:32;;;;;;;13.60;10.88;;;27.30;42.90;;;;;;5095471;28;20044;-74
2022/03/21 12:39:00;;;;;;;15.65;11.30;;;27.70;42.90;;;;;;5077779;28;20101;-74
2022/03/21 12:41:33;;;;;;;13.63;10.95;;;27.90;42.00;;;;;;5096087;28;20056;-74
2022/03/21 12:44:00;;;;;;;15.50;10.63;;;28.20;41.10;;;;;;5077345;28;20488;-73
2022/03/21 12:46:28;;;;;;;13.98;10.88;;;28.40;41.00;;;;;;5077960;28;20484;-73
2022/03/21 12:48:58;;;;;;;14.27;10.85;;;28.10;40.70;;;;;;5077926;28;20063;-73
2022/03/21 12:51:35;;;;;;;15.25;11.38;;;27.90;41.30;;;;;;5095454;28;20080;-73
2022/03/21 12:54:03;;;;;;;18.75;11.65;;;27.90;41.20;;;;;;5096205;28;20048;-73
2022/03/21 12:56:31;;;;;;;17.60;12.20;;;28.70;41.40;;;;;;5077832;28;20049;-73
2022/03/21 12:59:01;;;;;;;16.67;11.95;;;28.40;40.90;;;;;;5094810;28;20453;-74
2022/03/21 13:01:29;;;;;;;14.57;10.93;;;28.10;40.70;;;;;;5076789;28;20411;-73
2022/03/21 13:12:25;;;;;;;16.08;10.32;;;28.70;40.30;;;;;;5094922;28;19972;-73
2022/03/21 13:15:01;;;;;;;14.02;10.32;;;28.20;40.70;;;;;;5095236;28;20487;-74